sensor_id;sensor_type;location;lat;lon;timestamp;temperature;humidity
58566;DHT22;47788;46.172;-1.158;2022-09-09T00:03:47;18.90;99.90
58566;DHT22;47788;46.172;-1.158;2022-09-09T00:06:27;18.90;99.90
58566;DHT22;47788;46.172;-1.158;2022-09-09T00:11:51;18.80;99.90
58566;DHT22;47788;46.172;-1.158;2022-09-09T00:14:43;18.90;99.90
58566;DHT22;47788;46.172;-1.158;2022-09-09T00:17:24;18.90;99.90
58566;DHT22;47788;46.172;-1.158;2022-09-09T00:22:25;18.80;99.90
58566;DHT22;47788;46.172;-1.158;2022-09-09T00:24:55;18.80;99.90
58566;DHT22;47788;46.172;-1.158;2022-09-09T00:30:15;18.70;99.90
58566;DHT22;47788;46.172;-1.158;2022-09-09T00:32:44;18.70;99.90
58566;DHT22;47788;46.172;-1.158;2022-09-09T00:37:37;18.60;99.90
58566;DHT22;47788;46.172;-1.158;2022-09-09T00:40:16;18.70;99.90
58566;DHT22;47788;46.172;-1.158;2022-09-09T00:42:44;18.70;99.90
58566;DHT22;47788;46.172;-1.158;2022-09-09T00:47:43;18.70;99.90
58566;DHT22;47788;46.172;-1.158;2022-09-09T00:50:41;18.70;99.90
58566;DHT22;47788;46.172;-1.158;2022-09-09T00:56:19;18.70;99.90
58566;DHT22;47788;46.172;-1.158;2022-09-09T00:59:56;18.70;99.90
58566;DHT22;47788;46.172;-1.158;2022-09-09T01:02:02;18.70;99.90
58566;DHT22;47788;46.172;-1.158;2022-09-09T01:04:33;18.80;99.90
58566;DHT22;47788;46.172;-1.158;2022-09-09T01:07:16;18.80;99.90
58566;DHT22;47788;46.172;-1.158;2022-09-09T01:09:57;18.80;99.90
58566;DHT22;47788;46.172;-1.158;2022-09-09T01:12:42;18.80;99.90
58566;DHT22;47788;46.172;-1.158;2022-09-09T01:15:15;18.80;99.90
58566;DHT22;47788;46.172;-1.158;2022-09-09T01:17:48;18.80;99.90
58566;DHT22;47788;46.172;-1.158;2022-09-09T01:20:26;18.80;99.90
58566;DHT22;47788;46.172;-1.158;2022-09-09T01:28:16;18.90;99.90
58566;DHT22;47788;46.172;-1.158;2022-09-09T01:30:44;18.90;99.90
58566;DHT22;47788;46.172;-1.158;2022-09-09T01:33:14;18.80;99.90
58566;DHT22;47788;46.172;-1.158;2022-09-09T01:38:18;18.90;99.90
58566;DHT22;47788;46.172;-1.158;2022-09-09T01:40:44;18.90;99.90
58566;DHT22;47788;46.172;-1.158;2022-09-09T01:43:10;18.90;99.90
58566;DHT22;47788;46.172;-1.158;2022-09-09T01:45:35;18.80;99.90
58566;DHT22;47788;46.172;-1.158;2022-09-09T01:48:02;18.70;99.90
58566;DHT22;47788;46.172;-1.158;2022-09-09T01:50:28;18.70;99.90
58566;DHT22;47788;46.172;-1.158;2022-09-09T01:52:57;18.60;99.90
58566;DHT22;47788;46.172;-1.158;2022-09-09T01:55:40;18.50;99.90
58566;DHT22;47788;46.172;-1.158;2022-09-09T01:58:22;18.50;99.90
58566;DHT22;47788;46.172;-1.158;2022-09-09T02:03:49;18.50;99.90
58566;DHT22;47788;46.172;-1.158;2022-09-09T02:06:35;18.50;99.90
58566;DHT22;47788;46.172;-1.158;2022-09-09T02:09:04;18.50;99.90
58566;DHT22;47788;46.172;-1.158;2022-09-09T02:11:31;18.60;99.90
58566;DHT22;47788;46.172;-1.158;2022-09-09T02:14:08;18.60;99.90
58566;DHT22;47788;46.172;-1.158;2022-09-09T02:16:50;18.60;99.90
58566;DHT22;47788;46.172;-1.158;2022-09-09T02:19:29;18.60;99.90
58566;DHT22;47788;46.172;-1.158;2022-09-09T02:21:59;18.60;99.90
58566;DHT22;47788;46.172;-1.158;2022-09-09T02:24:27;18.60;99.90
58566;DHT22;47788;46.172;-1.158;2022-09-09T02:26:56;18.60;99.90
58566;DHT22;47788;46.172;-1.158;2022-09-09T02:29:47;18.60;99.90
58566;DHT22;47788;46.172;-1.158;2022-09-09T02:32:15;18.60;99.90
58566;DHT22;47788;46.172;-1.158;2022-09-09T02:34:51;18.80;99.90
58566;DHT22;47788;46.172;-1.158;2022-09-09T02:37:21;18.80;99.90
58566;DHT22;47788;46.172;-1.158;2022-09-09T02:39:48;18.80;99.90
58566;DHT22;47788;46.172;-1.158;2022-09-09T02:42:13;18.80;99.90
58566;DHT22;47788;46.172;-1.158;2022-09-09T02:44:41;18.80;99.90
58566;DHT22;47788;46.172;-1.158;2022-09-09T02:52:15;18.80;99.90
58566;DHT22;47788;46.172;-1.158;2022-09-09T02:54:45;18.80;99.90
58566;DHT22;47788;46.172;-1.158;2022-09-09T02:57:12;18.70;99.90
58566;DHT22;47788;46.172;-1.158;2022-09-09T02:59:39;18.70;99.90
58566;DHT22;47788;46.172;-1.158;2022-09-09T03:02:05;18.70;99.90
58566;DHT22;47788;46.172;-1.158;2022-09-09T03:04:31;18.60;99.90
58566;DHT22;47788;46.172;-1.158;2022-09-09T03:06:57;18.60;99.90
58566;DHT22;47788;46.172;-1.158;2022-09-09T03:09:23;18.60;99.90
58566;DHT22;47788;46.172;-1.158;2022-09-09T03:11:50;18.60;99.90
58566;DHT22;47788;46.172;-1.158;2022-09-09T03:14:16;18.60;99.90
58566;DHT22;47788;46.172;-1.158;2022-09-09T03:16:42;18.60;99.90
58566;DHT22;47788;46.172;-1.158;2022-09-09T03:19:08;18.50;99.90
58566;DHT22;47788;46.172;-1.158;2022-09-09T03:21:34;18.50;99.90
58566;DHT22;47788;46.172;-1.158;2022-09-09T03:24:00;18.40;99.90
58566;DHT22;47788;46.172;-1.158;2022-09-09T03:26:25;18.40;99.90
58566;DHT22;47788;46.172;-1.158;2022-09-09T03:28:51;18.40;99.90
58566;DHT22;47788;46.172;-1.158;2022-09-09T03:31:17;18.40;99.90
58566;DHT22;47788;46.172;-1.158;2022-09-09T03:33:44;18.40;99.90
58566;DHT22;47788;46.172;-1.158;2022-09-09T03:36:10;18.40;99.90
58566;DHT22;47788;46.172;-1.158;2022-09-09T03:38:36;18.40;99.90
58566;DHT22;47788;46.172;-1.158;2022-09-09T03:41:02;18.40;99.90
58566;DHT22;47788;46.172;-1.158;2022-09-09T03:43:28;18.40;99.90
58566;DHT22;47788;46.172;-1.158;2022-09-09T03:45:54;18.40;99.90
58566;DHT22;47788;46.172;-1.158;2022-09-09T03:48:22;18.50;99.90
58566;DHT22;47788;46.172;-1.158;2022-09-09T03:50:51;18.50;99.90
58566;DHT22;47788;46.172;-1.158;2022-09-09T03:53:18;18.50;99.90
58566;DHT22;47788;46.172;-1.158;2022-09-09T03:55:49;18.50;99.90
58566;DHT22;47788;46.172;-1.158;2022-09-09T03:58:16;18.50;99.90
58566;DHT22;47788;46.172;-1.158;2022-09-09T04:00:52;18.60;99.90
58566;DHT22;47788;46.172;-1.158;2022-09-09T04:03:18;18.60;99.90
58566;DHT22;47788;46.172;-1.158;2022-09-09T04:05:44;18.50;99.90
58566;DHT22;47788;46.172;-1.158;2022-09-09T04:08:09;18.50;99.90
58566;DHT22;47788;46.172;-1.158;2022-09-09T04:10:35;18.50;99.90
58566;DHT22;47788;46.172;-1.158;2022-09-09T04:13:04;18.50;99.90
58566;DHT22;47788;46.172;-1.158;2022-09-09T04:15:31;18.40;99.90
58566;DHT22;47788;46.172;-1.158;2022-09-09T04:17:56;18.40;99.90
58566;DHT22;47788;46.172;-1.158;2022-09-09T04:20:22;18.50;99.90
58566;DHT22;47788;46.172;-1.158;2022-09-09T04:22:48;18.40;99.90
58566;DHT22;47788;46.172;-1.158;2022-09-09T04:25:14;18.50;99.90
58566;DHT22;47788;46.172;-1.158;2022-09-09T04:27:40;18.50;99.90
58566;DHT22;47788;46.172;-1.158;2022-09-09T04:30:07;18.50;99.90
58566;DHT22;47788;46.172;-1.158;2022-09-09T04:32:35;18.50;99.90
58566;DHT22;47788;46.172;-1.158;2022-09-09T04:35:02;18.50;99.90
58566;DHT22;47788;46.172;-1.158;2022-09-09T04:37:28;18.50;99.90
58566;DHT22;47788;46.172;-1.158;2022-09-09T04:39:54;18.50;99.90
58566;DHT22;47788;46.172;-1.158;2022-09-09T04:42:19;18.50;99.90
58566;DHT22;47788;46.172;-1.158;2022-09-09T04:44:45;18.50;99.90
58566;DHT22;47788;46.172;-1.158;2022-09-09T04:47:11;18.50;99.90
58566;DHT22;47788;46.172;-1.158;2022-09-09T04:49:37;18.50;99.90
58566;DHT22;47788;46.172;-1.158;2022-09-09T04:52:04;18.40;99.90
58566;DHT22;47788;46.172;-1.158;2022-09-09T04:54:29;18.40;99.90
58566;DHT22;47788;46.172;-1.158;2022-09-09T04:56:55;18.40;99.90
58566;DHT22;47788;46.172;-1.158;2022-09-09T04:59:21;18.40;99.90
58566;DHT22;47788;46.172;-1.158;2022-09-09T05:01:48;18.40;99.90
58566;DHT22;47788;46.172;-1.158;2022-09-09T05:04:14;18.40;99.90
58566;DHT22;47788;46.172;-1.158;2022-09-09T05:06:41;18.30;99.90
58566;DHT22;47788;46.172;-1.158;2022-09-09T05:09:08;18.30;99.90
58566;DHT22;47788;46.172;-1.158;2022-09-09T05:11:34;18.30;99.90
58566;DHT22;47788;46.172;-1.158;2022-09-09T05:14:04;18.30;99.90
58566;DHT22;47788;46.172;-1.158;2022-09-09T05:16:30;18.20;99.90
58566;DHT22;47788;46.172;-1.158;2022-09-09T05:18:56;18.20;99.90
58566;DHT22;47788;46.172;-1.158;2022-09-09T05:21:23;18.20;99.90
58566;DHT22;47788;46.172;-1.158;2022-09-09T05:23:50;18.20;99.90
58566;DHT22;47788;46.172;-1.158;2022-09-09T05:26:19;18.20;99.90
58566;DHT22;47788;46.172;-1.158;2022-09-09T05:28:45;18.20;99.90
58566;DHT22;47788;46.172;-1.158;2022-09-09T05:31:12;18.20;99.90
58566;DHT22;47788;46.172;-1.158;2022-09-09T05:33:39;18.30;99.90
58566;DHT22;47788;46.172;-1.158;2022-09-09T05:36:10;18.20;99.90
58566;DHT22;47788;46.172;-1.158;2022-09-09T05:38:39;18.20;99.90
58566;DHT22;47788;46.172;-1.158;2022-09-09T05:41:05;18.20;99.90
58566;DHT22;47788;46.172;-1.158;2022-09-09T05:43:31;18.20;99.90
58566;DHT22;47788;46.172;-1.158;2022-09-09T05:46:02;18.20;99.90
58566;DHT22;47788;46.172;-1.158;2022-09-09T05:48:32;18.20;99.90
58566;DHT22;47788;46.172;-1.158;2022-09-09T05:50:58;18.20;99.90
58566;DHT22;47788;46.172;-1.158;2022-09-09T05:53:25;18.20;99.90
58566;DHT22;47788;46.172;-1.158;2022-09-09T05:55:57;18.30;99.90
58566;DHT22;47788;46.172;-1.158;2022-09-09T05:58:23;18.30;99.90
58566;DHT22;47788;46.172;-1.158;2022-09-09T06:00:49;18.30;99.90
58566;DHT22;47788;46.172;-1.158;2022-09-09T06:03:15;18.30;99.90
58566;DHT22;47788;46.172;-1.158;2022-09-09T06:05:42;18.40;99.90
58566;DHT22;47788;46.172;-1.158;2022-09-09T06:08:08;18.50;99.90
58566;DHT22;47788;46.172;-1.158;2022-09-09T06:10:34;18.50;99.90
58566;DHT22;47788;46.172;-1.158;2022-09-09T06:13:00;18.50;99.90
58566;DHT22;47788;46.172;-1.158;2022-09-09T06:15:25;18.50;99.90
58566;DHT22;47788;46.172;-1.158;2022-09-09T06:17:55;18.50;99.90
58566;DHT22;47788;46.172;-1.158;2022-09-09T06:20:21;18.50;99.90
58566;DHT22;47788;46.172;-1.158;2022-09-09T06:22:47;18.50;99.90
58566;DHT22;47788;46.172;-1.158;2022-09-09T06:25:14;18.60;99.90
58566;DHT22;47788;46.172;-1.158;2022-09-09T06:27:40;18.60;99.90
58566;DHT22;47788;46.172;-1.158;2022-09-09T06:30:07;18.60;99.90
58566;DHT22;47788;46.172;-1.158;2022-09-09T06:32:33;18.60;99.90
58566;DHT22;47788;46.172;-1.158;2022-09-09T06:35:00;18.70;99.90
58566;DHT22;47788;46.172;-1.158;2022-09-09T06:37:26;18.80;99.90
58566;DHT22;47788;46.172;-1.158;2022-09-09T06:39:52;18.90;99.90
58566;DHT22;47788;46.172;-1.158;2022-09-09T06:42:20;19.00;99.90
58566;DHT22;47788;46.172;-1.158;2022-09-09T06:44:45;19.10;99.90
58566;DHT22;47788;46.172;-1.158;2022-09-09T06:47:11;19.30;99.90
58566;DHT22;47788;46.172;-1.158;2022-09-09T06:49:37;19.30;99.90
58566;DHT22;47788;46.172;-1.158;2022-09-09T06:52:02;19.40;99.90
58566;DHT22;47788;46.172;-1.158;2022-09-09T06:54:28;19.30;99.90
58566;DHT22;47788;46.172;-1.158;2022-09-09T06:56:54;19.30;99.90
58566;DHT22;47788;46.172;-1.158;2022-09-09T06:59:19;19.20;99.90
58566;DHT22;47788;46.172;-1.158;2022-09-09T07:01:45;19.20;99.90
58566;DHT22;47788;46.172;-1.158;2022-09-09T07:04:12;19.10;99.90
58566;DHT22;47788;46.172;-1.158;2022-09-09T07:06:44;19.10;99.90
58566;DHT22;47788;46.172;-1.158;2022-09-09T07:09:12;19.10;99.90
58566;DHT22;47788;46.172;-1.158;2022-09-09T07:11:41;19.10;99.90
58566;DHT22;47788;46.172;-1.158;2022-09-09T07:14:07;19.00;99.90
58566;DHT22;47788;46.172;-1.158;2022-09-09T07:16:33;19.10;99.90
58566;DHT22;47788;46.172;-1.158;2022-09-09T07:19:02;19.20;99.90
58566;DHT22;47788;46.172;-1.158;2022-09-09T07:21:29;19.20;99.90
58566;DHT22;47788;46.172;-1.158;2022-09-09T07:23:55;19.20;99.90
58566;DHT22;47788;46.172;-1.158;2022-09-09T07:26:24;19.20;99.90
58566;DHT22;47788;46.172;-1.158;2022-09-09T07:28:50;19.20;99.90
58566;DHT22;47788;46.172;-1.158;2022-09-09T07:31:21;19.30;99.90
58566;DHT22;47788;46.172;-1.158;2022-09-09T07:33:48;19.40;99.90
58566;DHT22;47788;46.172;-1.158;2022-09-09T07:38:53;19.50;99.90
58566;DHT22;47788;46.172;-1.158;2022-09-09T07:41:22;19.60;99.90
58566;DHT22;47788;46.172;-1.158;2022-09-09T07:43:50;19.60;99.90
58566;DHT22;47788;46.172;-1.158;2022-09-09T07:46:18;19.80;99.90
58566;DHT22;47788;46.172;-1.158;2022-09-09T07:48:49;19.90;99.90
58566;DHT22;47788;46.172;-1.158;2022-09-09T07:51:24;20.00;99.90
58566;DHT22;47788;46.172;-1.158;2022-09-09T07:53:58;20.10;99.90
58566;DHT22;47788;46.172;-1.158;2022-09-09T07:56:26;20.00;99.90
58566;DHT22;47788;46.172;-1.158;2022-09-09T07:58:53;20.00;99.90
58566;DHT22;47788;46.172;-1.158;2022-09-09T08:01:21;20.10;99.90
58566;DHT22;47788;46.172;-1.158;2022-09-09T08:03:56;20.20;99.90
58566;DHT22;47788;46.172;-1.158;2022-09-09T08:06:25;20.50;99.90
58566;DHT22;47788;46.172;-1.158;2022-09-09T08:08:52;20.50;99.90
58566;DHT22;47788;46.172;-1.158;2022-09-09T08:11:18;20.40;99.90
58566;DHT22;47788;46.172;-1.158;2022-09-09T08:13:45;20.40;99.90
58566;DHT22;47788;46.172;-1.158;2022-09-09T08:16:17;20.30;99.90
58566;DHT22;47788;46.172;-1.158;2022-09-09T08:18:43;20.20;99.90
58566;DHT22;47788;46.172;-1.158;2022-09-09T08:21:17;20.10;99.90
58566;DHT22;47788;46.172;-1.158;2022-09-09T08:23:44;20.20;99.90
58566;DHT22;47788;46.172;-1.158;2022-09-09T08:26:13;20.30;99.90
58566;DHT22;47788;46.172;-1.158;2022-09-09T08:28:41;20.40;99.90
58566;DHT22;47788;46.172;-1.158;2022-09-09T08:33:35;20.20;99.90
58566;DHT22;47788;46.172;-1.158;2022-09-09T08:36:03;20.00;99.90
58566;DHT22;47788;46.172;-1.158;2022-09-09T08:38:29;20.10;99.90
58566;DHT22;47788;46.172;-1.158;2022-09-09T08:41:03;20.00;99.90
58566;DHT22;47788;46.172;-1.158;2022-09-09T08:43:33;19.90;99.90
58566;DHT22;47788;46.172;-1.158;2022-09-09T08:46:40;20.10;99.90
58566;DHT22;47788;46.172;-1.158;2022-09-09T08:51:56;20.60;99.90
58566;DHT22;47788;46.172;-1.158;2022-09-09T08:54:23;20.70;99.90
58566;DHT22;47788;46.172;-1.158;2022-09-09T08:56:49;20.80;99.90
58566;DHT22;47788;46.172;-1.158;2022-09-09T08:59:17;20.70;99.90
58566;DHT22;47788;46.172;-1.158;2022-09-09T09:01:56;20.40;99.90
58566;DHT22;47788;46.172;-1.158;2022-09-09T09:10:15;20.10;99.90
58566;DHT22;47788;46.172;-1.158;2022-09-09T09:12:47;20.30;99.90
58566;DHT22;47788;46.172;-1.158;2022-09-09T09:15:19;20.30;99.90
58566;DHT22;47788;46.172;-1.158;2022-09-09T09:17:46;20.30;99.90
58566;DHT22;47788;46.172;-1.158;2022-09-09T09:20:15;20.30;99.90
58566;DHT22;47788;46.172;-1.158;2022-09-09T09:22:50;20.20;99.90
58566;DHT22;47788;46.172;-1.158;2022-09-09T09:25:20;20.20;99.90
58566;DHT22;47788;46.172;-1.158;2022-09-09T09:27:58;20.40;99.90
58566;DHT22;47788;46.172;-1.158;2022-09-09T09:30:29;20.70;99.90
58566;DHT22;47788;46.172;-1.158;2022-09-09T09:33:02;20.80;99.90
58566;DHT22;47788;46.172;-1.158;2022-09-09T09:35:28;20.70;99.90
58566;DHT22;47788;46.172;-1.158;2022-09-09T09:37:54;20.80;99.90
58566;DHT22;47788;46.172;-1.158;2022-09-09T09:40:21;20.80;99.90
58566;DHT22;47788;46.172;-1.158;2022-09-09T09:48:04;21.40;99.90
58566;DHT22;47788;46.172;-1.158;2022-09-09T09:50:32;21.40;99.90
58566;DHT22;47788;46.172;-1.158;2022-09-09T09:53:01;21.70;99.90
58566;DHT22;47788;46.172;-1.158;2022-09-09T09:55:30;22.20;99.90
58566;DHT22;47788;46.172;-1.158;2022-09-09T09:58:13;22.60;99.90
58566;DHT22;47788;46.172;-1.158;2022-09-09T10:00:51;22.70;99.90
58566;DHT22;47788;46.172;-1.158;2022-09-09T10:03:25;22.10;99.90
58566;DHT22;47788;46.172;-1.158;2022-09-09T10:05:52;20.90;99.90
58566;DHT22;47788;46.172;-1.158;2022-09-09T10:08:17;20.10;99.90
58566;DHT22;47788;46.172;-1.158;2022-09-09T10:21:20;19.40;99.90
58566;DHT22;47788;46.172;-1.158;2022-09-09T10:26:43;19.70;99.90
58566;DHT22;47788;46.172;-1.158;2022-09-09T10:29:44;20.00;99.90
58566;DHT22;47788;46.172;-1.158;2022-09-09T10:35:33;20.60;99.90
58566;DHT22;47788;46.172;-1.158;2022-09-09T10:46:34;20.60;99.90
58566;DHT22;47788;46.172;-1.158;2022-09-09T10:49:21;20.70;99.90
58566;DHT22;47788;46.172;-1.158;2022-09-09T10:59:51;21.50;99.90
58566;DHT22;47788;46.172;-1.158;2022-09-09T11:02:27;21.60;99.90
58566;DHT22;47788;46.172;-1.158;2022-09-09T11:10:36;21.50;99.90
58566;DHT22;47788;46.172;-1.158;2022-09-09T11:13:19;21.60;99.90
58566;DHT22;47788;46.172;-1.158;2022-09-09T11:15:52;21.80;99.90
58566;DHT22;47788;46.172;-1.158;2022-09-09T11:18:22;21.90;99.90
58566;DHT22;47788;46.172;-1.158;2022-09-09T11:20:52;22.00;99.90
58566;DHT22;47788;46.172;-1.158;2022-09-09T11:23:32;21.80;99.90
58566;DHT22;47788;46.172;-1.158;2022-09-09T11:26:03;22.00;99.90
58566;DHT22;47788;46.172;-1.158;2022-09-09T11:39:48;21.90;99.90
58566;DHT22;47788;46.172;-1.158;2022-09-09T11:42:22;22.10;99.90
58566;DHT22;47788;46.172;-1.158;2022-09-09T11:44:49;22.10;99.90
58566;DHT22;47788;46.172;-1.158;2022-09-09T11:47:24;22.20;99.90
58566;DHT22;47788;46.172;-1.158;2022-09-09T11:49:54;22.30;99.90
58566;DHT22;47788;46.172;-1.158;2022-09-09T11:52:35;22.40;99.90
58566;DHT22;47788;46.172;-1.158;2022-09-09T11:55:24;22.10;99.90
58566;DHT22;47788;46.172;-1.158;2022-09-09T11:58:03;21.80;99.90
58566;DHT22;47788;46.172;-1.158;2022-09-09T12:00:41;21.80;99.90
58566;DHT22;47788;46.172;-1.158;2022-09-09T12:05:59;22.30;99.90
58566;DHT22;47788;46.172;-1.158;2022-09-09T12:08:28;22.60;99.90
58566;DHT22;47788;46.172;-1.158;2022-09-09T12:10:58;22.60;99.90
58566;DHT22;47788;46.172;-1.158;2022-09-09T12:13:28;22.60;99.90
58566;DHT22;47788;46.172;-1.158;2022-09-09T12:15:58;22.60;99.90
58566;DHT22;47788;46.172;-1.158;2022-09-09T12:18:44;22.60;99.90
58566;DHT22;47788;46.172;-1.158;2022-09-09T12:24:13;22.70;99.90
58566;DHT22;47788;46.172;-1.158;2022-09-09T12:26:52;22.50;99.90
58566;DHT22;47788;46.172;-1.158;2022-09-09T12:36:56;23.20;99.90
58566;DHT22;47788;46.172;-1.158;2022-09-09T12:39:37;23.10;99.90
58566;DHT22;47788;46.172;-1.158;2022-09-09T12:42:04;22.90;99.90
58566;DHT22;47788;46.172;-1.158;2022-09-09T12:44:30;23.00;99.90
58566;DHT22;47788;46.172;-1.158;2022-09-09T12:47:01;22.80;99.90
58566;DHT22;47788;46.172;-1.158;2022-09-09T12:52:20;22.50;99.90
58566;DHT22;47788;46.172;-1.158;2022-09-09T12:54:48;22.60;99.90
58566;DHT22;47788;46.172;-1.158;2022-09-09T12:57:17;22.70;99.90
58566;DHT22;47788;46.172;-1.158;2022-09-09T12:59:44;22.60;99.90
58566;DHT22;47788;46.172;-1.158;2022-09-09T13:02:26;22.70;99.90
58566;DHT22;47788;46.172;-1.158;2022-09-09T13:04:53;23.00;99.90
58566;DHT22;47788;46.172;-1.158;2022-09-09T13:07:21;22.80;99.90
58566;DHT22;47788;46.172;-1.158;2022-09-09T13:09:48;22.60;99.90
58566;DHT22;47788;46.172;-1.158;2022-09-09T13:12:22;22.60;99.90
58566;DHT22;47788;46.172;-1.158;2022-09-09T13:14:54;22.40;99.90
58566;DHT22;47788;46.172;-1.158;2022-09-09T13:17:23;22.70;99.90
58566;DHT22;47788;46.172;-1.158;2022-09-09T13:19:50;23.00;99.90
58566;DHT22;47788;46.172;-1.158;2022-09-09T13:22:38;23.30;99.90
58566;DHT22;47788;46.172;-1.158;2022-09-09T13:27:41;23.60;99.90
58566;DHT22;47788;46.172;-1.158;2022-09-09T13:35:35;23.10;99.90
58566;DHT22;47788;46.172;-1.158;2022-09-09T13:38:14;22.80;99.90
58566;DHT22;47788;46.172;-1.158;2022-09-09T13:40:39;22.70;99.90
58566;DHT22;47788;46.172;-1.158;2022-09-09T13:43:18;22.60;99.90
58566;DHT22;47788;46.172;-1.158;2022-09-09T13:45:56;22.60;99.90
58566;DHT22;47788;46.172;-1.158;2022-09-09T13:48:23;22.50;99.90
58566;DHT22;47788;46.172;-1.158;2022-09-09T13:50:55;22.60;99.90
58566;DHT22;47788;46.172;-1.158;2022-09-09T13:53:21;23.30;99.90
58566;DHT22;47788;46.172;-1.158;2022-09-09T13:55:46;23.40;99.90
58566;DHT22;47788;46.172;-1.158;2022-09-09T13:58:16;23.60;99.90
58566;DHT22;47788;46.172;-1.158;2022-09-09T14:00:43;23.90;99.90
58566;DHT22;47788;46.172;-1.158;2022-09-09T14:03:10;24.20;99.90
58566;DHT22;47788;46.172;-1.158;2022-09-09T14:05:35;24.40;99.90
58566;DHT22;47788;46.172;-1.158;2022-09-09T14:08:04;24.80;99.90
58566;DHT22;47788;46.172;-1.158;2022-09-09T14:10:30;25.00;99.90
58566;DHT22;47788;46.172;-1.158;2022-09-09T14:12:56;24.80;99.90
58566;DHT22;47788;46.172;-1.158;2022-09-09T14:15:22;25.40;99.90
58566;DHT22;47788;46.172;-1.158;2022-09-09T14:17:47;25.10;99.90
58566;DHT22;47788;46.172;-1.158;2022-09-09T14:20:14;24.60;99.90
58566;DHT22;47788;46.172;-1.158;2022-09-09T14:22:41;24.40;99.90
58566;DHT22;47788;46.172;-1.158;2022-09-09T14:25:07;24.40;99.90
58566;DHT22;47788;46.172;-1.158;2022-09-09T14:27:33;24.90;99.70
58566;DHT22;47788;46.172;-1.158;2022-09-09T14:29:59;25.70;98.70
58566;DHT22;47788;46.172;-1.158;2022-09-09T14:32:38;26.20;98.20
58566;DHT22;47788;46.172;-1.158;2022-09-09T14:35:04;26.70;97.60
58566;DHT22;47788;46.172;-1.158;2022-09-09T14:37:30;27.20;97.60
58566;DHT22;47788;46.172;-1.158;2022-09-09T14:39:57;26.90;97.70
58566;DHT22;47788;46.172;-1.158;2022-09-09T14:42:22;26.30;97.60
58566;DHT22;47788;46.172;-1.158;2022-09-09T14:44:48;26.40;97.60
58566;DHT22;47788;46.172;-1.158;2022-09-09T14:47:14;27.00;97.70
58566;DHT22;47788;46.172;-1.158;2022-09-09T14:49:40;28.00;97.30
58566;DHT22;47788;46.172;-1.158;2022-09-09T14:52:05;28.80;96.30
58566;DHT22;47788;46.172;-1.158;2022-09-09T14:54:32;28.80;95.50
58566;DHT22;47788;46.172;-1.158;2022-09-09T14:56:58;29.80;94.90
58566;DHT22;47788;46.172;-1.158;2022-09-09T14:59:24;28.20;95.40
58566;DHT22;47788;46.172;-1.158;2022-09-09T15:01:49;27.70;96.50
58566;DHT22;47788;46.172;-1.158;2022-09-09T15:04:15;27.20;96.90
58566;DHT22;47788;46.172;-1.158;2022-09-09T15:06:42;25.90;98.30
58566;DHT22;47788;46.172;-1.158;2022-09-09T15:09:10;24.60;99.90
58566;DHT22;47788;46.172;-1.158;2022-09-09T15:11:36;24.10;99.90
58566;DHT22;47788;46.172;-1.158;2022-09-09T15:14:03;24.60;99.90
58566;DHT22;47788;46.172;-1.158;2022-09-09T15:16:29;25.50;99.40
58566;DHT22;47788;46.172;-1.158;2022-09-09T15:18:58;25.10;99.40
58566;DHT22;47788;46.172;-1.158;2022-09-09T15:21:26;24.40;99.90
58566;DHT22;47788;46.172;-1.158;2022-09-09T15:23:52;24.70;99.90
58566;DHT22;47788;46.172;-1.158;2022-09-09T15:26:18;26.10;98.30
58566;DHT22;47788;46.172;-1.158;2022-09-09T15:28:46;27.30;96.40
58566;DHT22;47788;46.172;-1.158;2022-09-09T15:31:24;27.50;96.40
58566;DHT22;47788;46.172;-1.158;2022-09-09T15:33:50;27.50;96.50
58566;DHT22;47788;46.172;-1.158;2022-09-09T15:36:25;29.40;95.60
58566;DHT22;47788;46.172;-1.158;2022-09-09T15:38:52;31.10;94.10
58566;DHT22;47788;46.172;-1.158;2022-09-09T15:41:19;30.60;92.90
58566;DHT22;47788;46.172;-1.158;2022-09-09T15:43:46;29.10;94.20
58566;DHT22;47788;46.172;-1.158;2022-09-09T15:49:04;27.20;96.20
58566;DHT22;47788;46.172;-1.158;2022-09-09T15:51:29;26.10;97.50
58566;DHT22;47788;46.172;-1.158;2022-09-09T15:53:57;26.10;98.30
58566;DHT22;47788;46.172;-1.158;2022-09-09T15:56:26;28.00;96.60
58566;DHT22;47788;46.172;-1.158;2022-09-09T15:58:54;28.50;95.50
58566;DHT22;47788;46.172;-1.158;2022-09-09T16:01:20;28.60;95.30
58566;DHT22;47788;46.172;-1.158;2022-09-09T16:03:46;28.80;95.40
58566;DHT22;47788;46.172;-1.158;2022-09-09T16:06:13;30.50;94.60
58566;DHT22;47788;46.172;-1.158;2022-09-09T16:08:42;32.40;92.60
58566;DHT22;47788;46.172;-1.158;2022-09-09T16:11:11;31.10;92.20
58566;DHT22;47788;46.172;-1.158;2022-09-09T16:13:40;31.00;92.20
58566;DHT22;47788;46.172;-1.158;2022-09-09T16:16:06;31.60;91.80
58566;DHT22;47788;46.172;-1.158;2022-09-09T16:18:37;31.10;91.40
58566;DHT22;47788;46.172;-1.158;2022-09-09T16:21:04;29.70;92.80
58566;DHT22;47788;46.172;-1.158;2022-09-09T16:23:39;29.70;92.90
58566;DHT22;47788;46.172;-1.158;2022-09-09T16:26:05;30.00;92.40
58566;DHT22;47788;46.172;-1.158;2022-09-09T16:28:31;30.20;92.20
58566;DHT22;47788;46.172;-1.158;2022-09-09T16:30:56;28.50;93.40
58566;DHT22;47788;46.172;-1.158;2022-09-09T16:33:23;28.90;93.20
58566;DHT22;47788;46.172;-1.158;2022-09-09T16:35:49;28.30;93.50
58566;DHT22;47788;46.172;-1.158;2022-09-09T16:38:15;28.00;94.30
58566;DHT22;47788;46.172;-1.158;2022-09-09T16:40:41;29.30;93.60
58566;DHT22;47788;46.172;-1.158;2022-09-09T16:43:07;29.60;92.70
58566;DHT22;47788;46.172;-1.158;2022-09-09T16:45:34;27.10;94.90
58566;DHT22;47788;46.172;-1.158;2022-09-09T16:48:06;25.70;96.20
58566;DHT22;47788;46.172;-1.158;2022-09-09T16:50:32;24.80;97.60
58566;DHT22;47788;46.172;-1.158;2022-09-09T16:52:57;24.00;98.90
58566;DHT22;47788;46.172;-1.158;2022-09-09T16:55:23;23.10;99.90
58566;DHT22;47788;46.172;-1.158;2022-09-09T16:57:49;22.80;99.90
58566;DHT22;47788;46.172;-1.158;2022-09-09T17:00:15;22.40;99.90
58566;DHT22;47788;46.172;-1.158;2022-09-09T17:02:44;22.30;99.90
58566;DHT22;47788;46.172;-1.158;2022-09-09T17:05:10;22.10;99.90
58566;DHT22;47788;46.172;-1.158;2022-09-09T17:07:37;22.00;99.90
58566;DHT22;47788;46.172;-1.158;2022-09-09T17:10:04;21.80;99.90
58566;DHT22;47788;46.172;-1.158;2022-09-09T17:12:30;21.60;99.90
58566;DHT22;47788;46.172;-1.158;2022-09-09T17:14:56;21.50;99.90
58566;DHT22;47788;46.172;-1.158;2022-09-09T17:17:22;21.40;99.90
58566;DHT22;47788;46.172;-1.158;2022-09-09T17:19:47;21.30;99.90
58566;DHT22;47788;46.172;-1.158;2022-09-09T17:22:15;21.30;99.90
58566;DHT22;47788;46.172;-1.158;2022-09-09T17:24:41;21.20;99.90
58566;DHT22;47788;46.172;-1.158;2022-09-09T17:27:07;21.00;99.90
58566;DHT22;47788;46.172;-1.158;2022-09-09T17:29:32;20.60;99.90
58566;DHT22;47788;46.172;-1.158;2022-09-09T17:32:02;20.10;99.90
58566;DHT22;47788;46.172;-1.158;2022-09-09T17:34:27;19.70;99.90
58566;DHT22;47788;46.172;-1.158;2022-09-09T17:36:53;19.40;99.90
58566;DHT22;47788;46.172;-1.158;2022-09-09T17:39:19;19.40;99.90